עמוד ראשי
METAR-TAF:

METAR-TAF

שדות תעופה :

Khorramabad, איראן

קו רוחב: 33-26-11N, קו אורך: 048-17-09E, גובה: 1155מטר

תצפית מזג אוויר נוכחית

הדו"ח נערך לפני 1 שעות ו 5דקות, בשעה 14:00 UTC
רוח 6קשר מכיוון מערב
טמפרטורת 40 צלסיוס
לחות 8%
לחץ 1005 hPa
ראות 10 קילומטר או יותר
ללא עננים שבסיסם נמוך מ 5000 רגל או קומולונימבוס

METAR: OICK 181400Z 28006KT CAVOK 40/M01 Q1004 A2967

זמן: 19:35 (15:05 UTC)


TAF: חסר

תצפיות ותחזיות מזג אוויר לגבי יותר מ- 4,000 שדות תעופה ברחבי העולם. דוחות METAR ו- TAF.

התחנות הזמינות מסומנות בנקודות צהובות ואדומות על גבי המפה.

העבר את העכבר לנקודה הצבעונית על מנת לראות את שם התחנה.

לאחר מכן, לחץ כדי לראות את תוכן ואת תחזיות מזג האוויר.

כדי לשנות את המפה: לחץ על הכפתורים הירוקים עם הפלוס השחור כדי להתקרב; על הכפתור הירוק עם המקף כדי להתרחק; או בחיצים הירוקים למפות סמוכות.


METAR-TAF: